Time;durP1;ratioP1;P1;durP2;ratioP2;P2;SDS_P1;SDS_P2;PMS_P1;PMS_P2;Temp;Humidity;BMP_temperature;BMP_pressure;BME280_temperature;BME280_humidity;BME280_pressure;Samples;Min_cycle;Max_cycle;Signal;HPM_P1;HPM_P2
2021/09/29 00:01:11;;;;;;;1.40;0.50;;;12.20;99.90;;;;;;4122449;28;20042;-68
2021/09/29 00:03:12;;;;;;;4.47;0.77;;;12.10;99.90;;;;;;4124011;28;20043;-68
2021/09/29 00:05:14;;;;;;;5.03;1.00;;;12.10;99.90;;;;;;4123411;28;20139;-73
2021/09/29 00:07:16;;;;;;;2.40;0.50;;;12.10;99.90;;;;;;4123497;28;20140;-67
2021/09/29 00:09:17;;;;;;;1.70;0.60;;;12.10;99.90;;;;;;4122726;28;20120;-71
2021/09/29 00:11:18;;;;;;;1.77;0.50;;;12.10;99.90;;;;;;4122655;28;20148;-68
2021/09/29 00:13:23;;;;;;;0.80;0.60;;;12.00;99.90;;;;;;4124717;28;20552;-68
2021/09/29 00:15:24;;;;;;;1.00;0.80;;;12.00;99.90;;;;;;4123256;28;20026;-68
2021/09/29 00:17:26;;;;;;;1.40;0.67;;;12.00;99.90;;;;;;4124339;28;20561;-69
2021/09/29 00:19:27;;;;;;;1.57;0.70;;;11.90;99.90;;;;;;4122978;28;20026;-67
2021/09/29 00:21:28;;;;;;;1.57;0.83;;;11.90;99.90;;;;;;4124688;28;20038;-67
2021/09/29 00:23:29;;;;;;;2.00;0.67;;;11.90;99.90;;;;;;4122884;28;20102;-67
2021/09/29 00:25:30;;;;;;;1.00;0.60;;;11.90;99.90;;;;;;4124809;28;20776;-70
2021/09/29 00:27:32;;;;;;;3.50;0.67;;;11.90;99.90;;;;;;4122767;28;20038;-67
2021/09/29 00:29:34;;;;;;;2.27;0.53;;;11.90;99.90;;;;;;4124888;28;20069;-68
2021/09/29 00:31:36;;;;;;;3.73;0.97;;;11.80;99.90;;;;;;4123018;28;20065;-74
2021/09/29 00:33:39;;;;;;;2.53;0.80;;;11.80;99.90;;;;;;4124596;28;20038;-76
2021/09/29 00:35:40;;;;;;;9.40;2.30;;;11.80;99.90;;;;;;4123572;28;20449;-68
2021/09/29 00:37:42;;;;;;;0.80;0.60;;;11.80;99.90;;;;;;4123244;28;20038;-69
2021/09/29 00:39:44;;;;;;;1.33;0.73;;;11.80;99.90;;;;;;4124435;28;20038;-67
2021/09/29 00:41:46;;;;;;;1.83;0.70;;;11.90;99.90;;;;;;4123252;28;20104;-67
2021/09/29 00:43:47;;;;;;;2.37;0.83;;;11.80;99.90;;;;;;4124210;28;20034;-67
2021/09/29 00:45:48;;;;;;;1.60;0.53;;;11.80;99.90;;;;;;4123020;28;20038;-67
2021/09/29 00:47:49;;;;;;;2.00;0.60;;;11.80;99.90;;;;;;4124104;28;20023;-69
2021/09/29 00:49:50;;;;;;;1.60;0.83;;;11.80;99.90;;;;;;4122563;28;20034;-68
2021/09/29 00:51:52;;;;;;;2.10;0.80;;;11.80;99.90;;;;;;4124117;28;20038;-69
2021/09/29 00:53:53;;;;;;;1.23;0.83;;;11.80;99.90;;;;;;4122913;28;20081;-68
2021/09/29 00:55:55;;;;;;;0.70;0.60;;;11.80;99.90;;;;;;4124281;28;20065;-68
2021/09/29 00:57:56;;;;;;;2.93;0.70;;;11.80;99.90;;;;;;4122845;28;20850;-67
2021/09/29 00:59:58;;;;;;;1.63;0.83;;;11.80;99.90;;;;;;4124904;28;20098;-68
2021/09/29 01:01:59;;;;;;;3.90;0.83;;;11.80;99.90;;;;;;4122335;28;20046;-68
2021/09/29 01:04:01;;;;;;;1.90;0.70;;;11.80;99.90;;;;;;4124189;28;20038;-67
2021/09/29 01:06:16;;;;;;;1.67;0.70;;;11.80;99.90;;;;;;4122319;28;20057;-68
2021/09/29 01:08:23;;;;;;;2.07;0.80;;;11.80;99.90;;;;;;4124238;28;20019;-67
2021/09/29 01:10:43;;;;;;;1.57;0.60;;;11.80;99.90;;;;;;4122649;28;20038;-69
2021/09/29 01:13:04;;;;;;;0.80;0.60;;;11.80;99.90;;;;;;4121142;28;20112;-68
2021/09/29 01:15:07;;;;;;;3.17;0.57;;;11.80;99.90;;;;;;4122610;28;20031;-69
2021/09/29 01:17:10;;;;;;;0.60;0.50;;;11.80;99.90;;;;;;4124307;28;20034;-68
2021/09/29 01:19:55;;;;;;;1.87;0.90;;;11.80;99.90;;;;;;4122152;28;20065;-68
2021/09/29 01:22:12;;;;;;;1.37;0.57;;;11.80;99.90;;;;;;4108198;28;20096;-68
2021/09/29 01:24:38;;;;;;;2.23;0.63;;;11.80;99.90;;;;;;4122872;28;20691;-68
2021/09/29 01:26:41;;;;;;;1.63;0.53;;;11.70;99.90;;;;;;4126663;28;20077;-70
2021/09/29 01:28:53;;;;;;;1.27;0.50;;;11.70;99.90;;;;;;4125361;28;20038;-68
2021/09/29 01:30:54;;;;;;;1.70;1.03;;;11.70;99.90;;;;;;4126742;28;20121;-68
2021/09/29 01:32:56;;;;;;;1.63;1.17;;;11.70;99.90;;;;;;4125755;28;20081;-70
2021/09/29 01:34:57;;;;;;;1.90;0.50;;;11.70;99.90;;;;;;4127085;28;20034;-68
2021/09/29 01:36:59;;;;;;;0.60;0.50;;;11.70;99.90;;;;;;4125042;28;20105;-69
2021/09/29 01:39:01;;;;;;;1.33;0.40;;;11.70;99.90;;;;;;4126970;28;20093;-68
2021/09/29 01:41:02;;;;;;;1.23;0.70;;;11.70;99.90;;;;;;4125405;28;20093;-68
2021/09/29 01:43:03;;;;;;;0.50;0.40;;;11.70;99.90;;;;;;4126859;28;20038;-68
2021/09/29 01:45:06;;;;;;;1.07;0.60;;;11.60;99.90;;;;;;4125592;28;20058;-70
2021/09/29 01:47:09;;;;;;;2.33;0.63;;;11.60;99.90;;;;;;4126572;28;20041;-69
2021/09/29 01:49:31;;;;;;;2.67;0.57;;;11.60;99.90;;;;;;4125677;28;20026;-68
2021/09/29 01:51:37;;;;;;;1.83;0.30;;;11.60;99.90;;;;;;4126406;28;20058;-69
2021/09/29 01:53:39;;;;;;;0.80;0.50;;;11.60;99.90;;;;;;4125238;28;20088;-68
2021/09/29 01:55:40;;;;;;;2.20;0.50;;;11.60;99.90;;;;;;4126218;28;20489;-68
2021/09/29 01:57:41;;;;;;;0.40;0.30;;;11.60;99.90;;;;;;4125702;28;20074;-68
2021/09/29 01:59:44;;;;;;;15.77;0.77;;;11.60;99.90;;;;;;4125310;28;20038;-68
2021/09/29 02:01:46;;;;;;;0.60;0.33;;;11.60;99.90;;;;;;4126202;28;20082;-68
2021/09/29 02:03:47;;;;;;;1.80;0.33;;;11.60;99.90;;;;;;4125191;28;20465;-67
2021/09/29 02:05:52;;;;;;;1.57;0.43;;;11.60;99.90;;;;;;4126588;28;20030;-67
2021/09/29 02:07:53;;;;;;;1.93;0.40;;;11.60;99.90;;;;;;4125259;28;20089;-68
2021/09/29 02:09:54;;;;;;;1.73;0.60;;;11.60;99.90;;;;;;4126925;28;20091;-69
2021/09/29 02:11:57;;;;;;;0.40;0.30;;;11.50;99.90;;;;;;4124920;28;20410;-68
2021/09/29 02:13:58;;;;;;;1.13;0.50;;;11.50;99.90;;;;;;4126407;28;20038;-68
2021/09/29 02:15:59;;;;;;;2.93;0.40;;;11.60;99.90;;;;;;4124344;28;20112;-68
2021/09/29 02:18:00;;;;;;;1.30;0.90;;;11.60;99.90;;;;;;4126141;28;20046;-68
2021/09/29 02:20:01;;;;;;;1.63;0.50;;;11.60;99.90;;;;;;4122993;28;20030;-68
2021/09/29 02:22:02;;;;;;;1.17;0.97;;;11.60;99.90;;;;;;4125883;28;20050;-68
2021/09/29 02:24:05;;;;;;;0.97;0.40;;;11.60;99.90;;;;;;4124444;28;20093;-69
2021/09/29 02:26:06;;;;;;;6.57;0.97;;;11.60;99.90;;;;;;4126043;28;20080;-71
2021/09/29 02:28:07;;;;;;;1.50;0.40;;;11.50;99.90;;;;;;4125048;28;20050;-67
2021/09/29 02:30:09;;;;;;;1.43;0.43;;;11.50;99.90;;;;;;4124820;28;20042;-68
2021/09/29 02:32:10;;;;;;;2.27;0.50;;;11.50;99.90;;;;;;4125020;28;20557;-70
2021/09/29 02:34:12;;;;;;;2.20;0.40;;;11.60;99.90;;;;;;4125036;28;20480;-67
2021/09/29 02:36:13;;;;;;;0.83;0.50;;;11.60;99.90;;;;;;4125679;28;20023;-68
2021/09/29 02:38:14;;;;;;;1.80;0.70;;;11.60;99.90;;;;;;4123885;28;20104;-67
2021/09/29 02:40:15;;;;;;;1.90;0.47;;;11.60;99.90;;;;;;4126472;28;20080;-71
2021/09/29 02:42:17;;;;;;;1.27;0.60;;;11.60;99.90;;;;;;4124170;28;20097;-68
2021/09/29 02:44:18;;;;;;;1.63;0.60;;;11.60;99.90;;;;;;4126051;28;20034;-68
2021/09/29 02:46:19;;;;;;;0.60;0.40;;;11.60;99.90;;;;;;4124248;28;20034;-69
2021/09/29 02:48:20;;;;;;;0.70;0.50;;;11.60;99.90;;;;;;4125888;28;20030;-69
2021/09/29 02:50:21;;;;;;;1.00;0.40;;;11.60;99.90;;;;;;4123998;28;20047;-71
2021/09/29 02:52:23;;;;;;;0.70;0.37;;;11.60;99.90;;;;;;4125744;28;20548;-67
2021/09/29 02:54:24;;;;;;;2.90;1.07;;;11.60;99.90;;;;;;4123679;28;20101;-67
2021/09/29 02:56:26;;;;;;;0.63;0.40;;;11.60;99.90;;;;;;4125625;28;20774;-68
2021/09/29 02:58:27;;;;;;;2.10;0.50;;;11.60;99.90;;;;;;4123981;28;20080;-68
2021/09/29 03:00:28;;;;;;;0.57;0.37;;;11.60;99.90;;;;;;4124911;28;20422;-71
2021/09/29 03:02:29;;;;;;;1.00;0.50;;;11.70;99.90;;;;;;4124770;28;20039;-69
2021/09/29 03:04:30;;;;;;;0.90;0.40;;;11.70;99.90;;;;;;4124610;28;20092;-67
2021/09/29 03:06:32;;;;;;;1.57;0.70;;;11.70;99.90;;;;;;4124889;28;20439;-67
2021/09/29 03:08:33;;;;;;;0.60;0.60;;;11.70;99.90;;;;;;4123650;28;20023;-68
2021/09/29 03:10:36;;;;;;;2.07;0.50;;;11.70;99.90;;;;;;4125843;28;20814;-68
2021/09/29 03:12:37;;;;;;;1.73;0.60;;;11.70;99.90;;;;;;4124077;28;20019;-68
2021/09/29 03:14:38;;;;;;;0.93;0.30;;;11.70;99.90;;;;;;4125582;28;20026;-72
2021/09/29 03:16:39;;;;;;;1.93;0.30;;;11.70;99.90;;;;;;4123556;28;20050;-74
2021/09/29 03:18:41;;;;;;;1.50;0.40;;;11.70;99.90;;;;;;4124693;28;20042;-67
2021/09/29 03:20:42;;;;;;;1.00;0.50;;;11.70;99.90;;;;;;4123743;28;20026;-72
2021/09/29 03:22:43;;;;;;;0.90;0.30;;;11.70;99.90;;;;;;4125199;28;20030;-70
2021/09/29 03:24:45;;;;;;;0.70;0.50;;;11.70;99.90;;;;;;4123579;28;20026;-66
2021/09/29 03:26:47;;;;;;;2.07;0.60;;;11.70;99.90;;;;;;4125166;28;20491;-68
2021/09/29 03:28:48;;;;;;;4.07;0.53;;;11.70;99.90;;;;;;4123558;28;20085;-68
2021/09/29 03:30:50;;;;;;;0.70;0.47;;;11.70;99.90;;;;;;4124597;28;20038;-69
2021/09/29 03:32:51;;;;;;;8.53;1.00;;;11.80;99.90;;;;;;4123809;28;20093;-68
2021/09/29 03:34:52;;;;;;;1.00;0.60;;;11.70;99.90;;;;;;4123916;28;20430;-70
2021/09/29 03:36:53;;;;;;;1.43;0.87;;;11.80;99.90;;;;;;4124521;28;20073;-69
2021/09/29 03:38:54;;;;;;;2.77;0.80;;;11.80;99.90;;;;;;4123449;28;20097;-70
2021/09/29 03:40:55;;;;;;;2.67;0.80;;;11.80;99.90;;;;;;4124984;28;20096;-73
2021/09/29 03:42:56;;;;;;;2.47;1.00;;;11.80;99.90;;;;;;4123064;28;20026;-67
2021/09/29 03:44:58;;;;;;;0.57;0.40;;;11.80;99.90;;;;;;4124909;28;20097;-67
2021/09/29 03:46:59;;;;;;;0.73;0.53;;;11.80;99.90;;;;;;4122971;28;20046;-66
2021/09/29 03:49:02;;;;;;;3.50;1.07;;;11.80;99.90;;;;;;4124151;28;20544;-68
2021/09/29 03:51:03;;;;;;;1.13;0.40;;;11.80;99.90;;;;;;4122989;28;20030;-68
2021/09/29 03:53:04;;;;;;;2.63;0.80;;;11.80;99.90;;;;;;4124691;28;20034;-68
2021/09/29 03:55:06;;;;;;;0.77;0.50;;;11.80;99.90;;;;;;4122837;28;20084;-66
2021/09/29 03:57:07;;;;;;;0.40;0.37;;;11.90;99.90;;;;;;4124677;28;20030;-70
2021/09/29 03:59:08;;;;;;;0.90;0.40;;;11.80;99.90;;;;;;4122950;28;20050;-73
2021/09/29 04:01:09;;;;;;;0.70;0.70;;;11.80;99.90;;;;;;4123927;28;20026;-68
2021/09/29 04:03:11;;;;;;;2.07;0.60;;;11.80;99.90;;;;;;4123616;28;20027;-68
2021/09/29 04:05:12;;;;;;;2.10;0.60;;;11.90;99.90;;;;;;4123275;28;20616;-69
2021/09/29 04:07:13;;;;;;;2.63;0.60;;;11.90;99.90;;;;;;4123760;28;20038;-68
2021/09/29 04:09:15;;;;;;;1.17;0.67;;;11.90;99.90;;;;;;4122846;28;20045;-66
2021/09/29 04:11:16;;;;;;;1.97;0.80;;;11.90;99.90;;;;;;4124196;28;20034;-67
2021/09/29 04:13:17;;;;;;;1.77;0.57;;;11.90;99.90;;;;;;4122473;28;20073;-70
2021/09/29 04:15:18;;;;;;;1.20;0.70;;;11.90;99.90;;;;;;4123929;28;20584;-68
2021/09/29 04:17:19;;;;;;;2.00;0.90;;;11.90;99.90;;;;;;4122021;28;20015;-70
2021/09/29 04:19:20;;;;;;;2.13;0.60;;;11.90;99.90;;;;;;4123880;28;20038;-68
2021/09/29 04:21:22;;;;;;;1.50;1.10;;;11.90;99.90;;;;;;4122276;28;20094;-69
2021/09/29 04:23:24;;;;;;;1.80;0.90;;;11.90;99.90;;;;;;4123597;28;20075;-68
2021/09/29 04:25:25;;;;;;;1.63;0.70;;;11.90;99.90;;;;;;4122371;28;20100;-69
2021/09/29 04:27:26;;;;;;;1.60;0.80;;;11.90;99.90;;;;;;4124294;28;20042;-70
2021/09/29 04:29:27;;;;;;;3.10;1.13;;;11.90;99.90;;;;;;4122505;28;20046;-68
2021/09/29 04:31:28;;;;;;;2.80;1.13;;;11.90;99.90;;;;;;4123513;28;20486;-70
2021/09/29 04:33:30;;;;;;;2.63;1.30;;;11.90;99.90;;;;;;4122880;28;20085;-69
2021/09/29 04:35:31;;;;;;;2.33;0.90;;;11.90;99.90;;;;;;4123248;28;21023;-77
2021/09/29 04:37:33;;;;;;;3.53;0.97;;;11.90;99.90;;;;;;4122899;28;20542;-68
2021/09/29 04:39:34;;;;;;;3.60;1.03;;;11.90;99.90;;;;;;4122138;28;20133;-71
2021/09/29 04:41:35;;;;;;;4.10;0.90;;;11.90;99.90;;;;;;4123218;28;20090;-70
2021/09/29 04:43:37;;;;;;;2.10;0.90;;;12.00;99.90;;;;;;4122638;28;20034;-71
2021/09/29 04:45:38;;;;;;;7.90;1.73;;;11.90;99.90;;;;;;4124366;28;20096;-72
2021/09/29 04:47:39;;;;;;;1.53;0.90;;;11.90;99.90;;;;;;4122181;28;20088;-69
2021/09/29 04:49:40;;;;;;;1.83;1.20;;;11.90;99.90;;;;;;4123563;28;20092;-68
2021/09/29 04:51:41;;;;;;;1.00;0.90;;;11.90;99.90;;;;;;4122064;28;20027;-67
2021/09/29 04:53:43;;;;;;;1.30;1.00;;;11.90;99.90;;;;;;4124448;28;20506;-69
2021/09/29 04:55:44;;;;;;;1.20;0.87;;;11.90;99.90;;;;;;4121508;28;20034;-71
2021/09/29 04:57:46;;;;;;;1.17;1.00;;;11.90;99.90;;;;;;4123912;28;20046;-69
2021/09/29 04:59:48;;;;;;;2.33;1.40;;;11.90;99.90;;;;;;4121739;28;20053;-70
2021/09/29 05:01:49;;;;;;;7.70;1.17;;;11.90;99.90;;;;;;4125172;28;20085;-74
2021/09/29 05:03:50;;;;;;;2.40;1.20;;;11.90;99.90;;;;;;4121684;28;20034;-66
2021/09/29 05:05:51;;;;;;;1.40;0.90;;;11.90;99.90;;;;;;4121848;28;20034;-68
2021/09/29 05:07:55;;;;;;;1.90;1.10;;;11.90;99.90;;;;;;4122299;28;20073;-67
2021/09/29 05:09:56;;;;;;;2.67;1.40;;;11.90;99.90;;;;;;4121183;28;20034;-67
2021/09/29 05:12:27;;;;;;;1.47;1.00;;;12.00;99.90;;;;;;4122917;28;20372;-67
2021/09/29 05:14:28;;;;;;;3.58;1.40;;;12.00;99.90;;;;;;4119602;28;20050;-68
2021/09/29 05:16:29;;;;;;;2.80;1.57;;;12.00;99.90;;;;;;4122675;28;20044;-69
2021/09/29 05:18:30;;;;;;;1.40;1.10;;;11.90;99.90;;;;;;4120294;28;20049;-69
2021/09/29 05:20:32;;;;;;;2.10;1.40;;;12.00;99.90;;;;;;4121670;28;20038;-67
2021/09/29 05:22:33;;;;;;;4.77;1.53;;;12.00;99.90;;;;;;4119791;28;20030;-66
2021/09/29 05:24:34;;;;;;;3.60;1.30;;;12.00;99.90;;;;;;4121839;28;20100;-67
2021/09/29 05:26:35;;;;;;;3.03;1.20;;;12.00;99.90;;;;;;4119961;28;20430;-67
2021/09/29 05:28:40;;;;;;;4.50;1.13;;;12.00;99.90;;;;;;4121605;28;20150;-67
2021/09/29 05:30:42;;;;;;;2.60;1.47;;;12.00;99.90;;;;;;4112384;28;20581;-67
2021/09/29 05:32:43;;;;;;;2.13;1.30;;;12.10;99.90;;;;;;4109790;28;20117;-66
2021/09/29 05:34:44;;;;;;;4.20;1.70;;;12.10;99.90;;;;;;4112335;28;20129;-66
2021/09/29 05:36:45;;;;;;;2.37;1.37;;;12.10;99.90;;;;;;4121798;28;20030;-67
2021/09/29 05:38:47;;;;;;;5.03;1.20;;;12.10;99.90;;;;;;4120971;28;20093;-68
2021/09/29 05:40:48;;;;;;;4.60;1.30;;;12.00;99.90;;;;;;4124133;28;20081;-68
2021/09/29 05:42:49;;;;;;;4.17;1.30;;;12.10;99.90;;;;;;4123151;28;20042;-67
2021/09/29 05:44:50;;;;;;;1.97;1.30;;;12.10;99.90;;;;;;4125204;28;20085;-70
2021/09/29 05:46:51;;;;;;;2.20;1.23;;;12.10;99.90;;;;;;4125346;28;20589;-67
2021/09/29 05:48:52;;;;;;;2.90;1.30;;;12.10;99.90;;;;;;4124616;28;20042;-68
2021/09/29 05:50:55;;;;;;;1.60;1.03;;;12.00;99.90;;;;;;4126489;28;20038;-67
2021/09/29 05:52:56;;;;;;;1.30;0.90;;;12.10;99.90;;;;;;4124619;28;20093;-68
2021/09/29 05:54:57;;;;;;;2.70;1.20;;;12.00;99.90;;;;;;4125934;28;20100;-67
2021/09/29 05:56:58;;;;;;;1.30;1.03;;;12.00;99.90;;;;;;4124242;28;20038;-66
2021/09/29 05:58:59;;;;;;;3.27;1.57;;;12.10;99.90;;;;;;4126154;28;20430;-68
2021/09/29 06:01:01;;;;;;;1.60;1.13;;;12.10;99.90;;;;;;4122302;28;20038;-67
2021/09/29 06:03:02;;;;;;;3.00;1.70;;;12.10;99.90;;;;;;4125015;28;20049;-65
2021/09/29 06:05:04;;;;;;;5.17;1.17;;;12.10;99.90;;;;;;4124288;28;20038;-66
2021/09/29 06:07:05;;;;;;;8.73;2.17;;;12.10;99.90;;;;;;4125513;28;20388;-67
2021/09/29 06:09:06;;;;;;;3.17;1.40;;;12.10;99.90;;;;;;4124769;28;20026;-67
2021/09/29 06:11:07;;;;;;;1.40;1.30;;;12.10;99.90;;;;;;4125508;28;20038;-66
2021/09/29 06:13:08;;;;;;;1.17;1.07;;;12.10;99.90;;;;;;4124779;28;20085;-66
2021/09/29 06:15:17;;;;;;;3.37;1.90;;;12.10;99.90;;;;;;4124940;28;20039;-67
2021/09/29 06:19:24;;;;;;;2.73;1.30;;;12.10;99.90;;;;;;4125172;28;20489;-66
2021/09/29 06:21:25;;;;;;;3.73;1.40;;;12.10;99.90;;;;;;4124971;28;20032;-65
2021/09/29 06:23:26;;;;;;;4.10;1.80;;;12.10;99.90;;;;;;4123320;28;20035;-66
2021/09/29 06:25:28;;;;;;;1.90;1.53;;;12.10;99.90;;;;;;4125521;28;20038;-65
2021/09/29 06:27:29;;;;;;;2.10;1.30;;;12.10;99.90;;;;;;4124132;28;20105;-66
2021/09/29 06:29:30;;;;;;;2.83;1.33;;;12.20;99.90;;;;;;4125604;28;20446;-66
2021/09/29 06:31:32;;;;;;;1.93;1.57;;;12.20;99.90;;;;;;4123488;28;20042;-70
2021/09/29 06:33:33;;;;;;;2.67;1.47;;;12.20;99.90;;;;;;4125373;28;20545;-65
2021/09/29 06:35:35;;;;;;;3.03;1.53;;;12.20;99.90;;;;;;4123904;28;20038;-66
2021/09/29 06:37:41;;;;;;;1.80;1.50;;;12.20;99.90;;;;;;4125019;28;20056;-67
2021/09/29 06:39:43;;;;;;;2.63;1.53;;;12.20;99.90;;;;;;4123743;28;20045;-65
2021/09/29 06:41:45;;;;;;;3.17;1.80;;;12.20;99.90;;;;;;4126035;28;20034;-65
2021/09/29 06:43:46;;;;;;;2.67;1.77;;;12.20;99.90;;;;;;4123800;28;20026;-69
2021/09/29 06:45:47;;;;;;;2.53;1.60;;;12.30;99.90;;;;;;4124756;28;20034;-66
2021/09/29 06:47:49;;;;;;;4.37;1.37;;;12.30;99.90;;;;;;4124231;28;20089;-64
2021/09/29 06:49:50;;;;;;;4.60;1.37;;;12.30;99.90;;;;;;4119457;28;20101;-65
2021/09/29 06:51:51;;;;;;;2.87;2.17;;;12.30;99.90;;;;;;4123493;28;20089;-68
2021/09/29 06:53:52;;;;;;;3.47;2.40;;;12.30;99.90;;;;;;4119913;28;20050;-69
2021/09/29 06:55:53;;;;;;;10.20;2.30;;;12.30;99.90;;;;;;4123170;28;20104;-70
2021/09/29 06:57:55;;;;;;;2.80;2.20;;;12.30;99.90;;;;;;4123091;28;20045;-69
2021/09/29 06:59:56;;;;;;;6.80;1.87;;;12.30;99.90;;;;;;4123319;28;20030;-68
2021/09/29 07:01:57;;;;;;;2.50;1.73;;;12.30;99.90;;;;;;4123095;28;20757;-68
2021/09/29 07:03:59;;;;;;;3.00;1.60;;;12.30;99.90;;;;;;4124790;28;20050;-68
2021/09/29 07:06:00;;;;;;;1.90;1.60;;;12.40;99.90;;;;;;4123990;28;20553;-68
2021/09/29 07:08:02;;;;;;;6.57;2.53;;;12.40;99.90;;;;;;4125188;28;20054;-69
2021/09/29 07:10:04;;;;;;;3.67;1.83;;;12.40;99.90;;;;;;4123589;28;20030;-69
2021/09/29 07:12:06;;;;;;;2.67;2.20;;;12.40;99.90;;;;;;4125415;28;20840;-73
2021/09/29 07:14:07;;;;;;;2.30;1.77;;;12.30;99.90;;;;;;4123973;28;20041;-69
2021/09/29 07:16:09;;;;;;;3.03;2.00;;;12.40;99.90;;;;;;4125220;28;20902;-68
2021/09/29 07:18:11;;;;;;;4.60;2.17;;;12.40;99.90;;;;;;4123919;28;20364;-69
2021/09/29 07:20:13;;;;;;;10.37;2.27;;;12.40;99.90;;;;;;4124591;28;20538;-68
2021/09/29 07:22:14;;;;;;;4.70;1.67;;;12.40;99.90;;;;;;4123965;28;20026;-68
2021/09/29 07:24:15;;;;;;;2.50;1.67;;;12.50;99.90;;;;;;4123890;28;20030;-68
2021/09/29 07:26:17;;;;;;;2.37;2.00;;;12.40;99.90;;;;;;4122063;28;20084;-68
2021/09/29 07:28:18;;;;;;;4.97;2.60;;;12.40;99.90;;;;;;4122926;28;20494;-67
2021/09/29 07:30:19;;;;;;;3.30;2.23;;;12.40;99.90;;;;;;4124141;28;20483;-68
2021/09/29 07:32:20;;;;;;;4.97;2.23;;;12.40;99.90;;;;;;4123256;28;20033;-69
2021/09/29 07:34:23;;;;;;;3.30;2.10;;;12.40;99.90;;;;;;4124262;28;20076;-74
2021/09/29 07:36:24;;;;;;;3.83;2.27;;;12.40;99.90;;;;;;4123338;28;20443;-68
2021/09/29 07:38:28;;;;;;;4.73;2.17;;;12.40;99.90;;;;;;4124690;28;20101;-68
2021/09/29 07:40:29;;;;;;;2.80;1.90;;;12.40;99.90;;;;;;4123536;28;20026;-68
2021/09/29 07:42:31;;;;;;;2.50;2.13;;;12.40;99.90;;;;;;4124554;28;20391;-68
2021/09/29 07:44:33;;;;;;;3.73;2.33;;;12.40;99.90;;;;;;4122933;28;20026;-68
2021/09/29 07:46:35;;;;;;;6.40;1.80;;;12.40;99.90;;;;;;4123123;28;20640;-68
2021/09/29 07:48:36;;;;;;;3.57;1.90;;;12.40;99.90;;;;;;4122440;28;20035;-66
2021/09/29 07:50:37;;;;;;;4.13;1.77;;;12.40;99.90;;;;;;4116338;28;20096;-67
2021/09/29 07:52:39;;;;;;;4.90;2.00;;;12.50;99.90;;;;;;4122879;28;20030;-67
2021/09/29 07:54:40;;;;;;;3.60;1.77;;;12.50;99.90;;;;;;4124182;28;20093;-69
2021/09/29 07:56:41;;;;;;;4.23;2.03;;;12.50;99.90;;;;;;4124173;28;20038;-67
2021/09/29 07:58:42;;;;;;;2.10;1.90;;;12.60;99.90;;;;;;4123588;28;20077;-68
2021/09/29 08:00:43;;;;;;;3.10;1.83;;;12.60;99.90;;;;;;4122427;28;20038;-70
2021/09/29 08:02:45;;;;;;;4.50;1.97;;;12.60;99.90;;;;;;4122265;28;20598;-68
2021/09/29 08:04:46;;;;;;;6.00;2.00;;;12.70;99.90;;;;;;4118119;28;20097;-68
2021/09/29 08:06:48;;;;;;;2.87;1.93;;;12.70;99.90;;;;;;4122510;28;20042;-69
2021/09/29 08:08:51;;;;;;;8.27;1.93;;;12.70;99.90;;;;;;4123426;28;20450;-70
2021/09/29 08:10:52;;;;;;;3.83;2.03;;;12.70;99.90;;;;;;4114205;28;20137;-68
2021/09/29 08:12:54;;;;;;;4.83;1.80;;;12.80;99.90;;;;;;4118785;28;20081;-69
2021/09/29 08:14:55;;;;;;;4.17;2.20;;;12.80;99.90;;;;;;4122845;28;20895;-67
2021/09/29 08:16:56;;;;;;;4.83;1.53;;;12.70;99.90;;;;;;4123695;28;20042;-67
2021/09/29 08:18:57;;;;;;;3.63;2.00;;;12.70;99.90;;;;;;4122811;28;20038;-68
2021/09/29 08:21:01;;;;;;;4.93;2.20;;;12.70;99.90;;;;;;4123938;28;20079;-71
2021/09/29 08:23:07;;;;;;;4.20;2.20;;;12.70;99.90;;;;;;4121893;28;20533;-69
2021/09/29 08:25:17;;;;;;;5.03;1.57;;;12.70;99.90;;;;;;4107542;28;20042;-68
2021/09/29 08:31:32;;;;;;;2.83;2.13;;;12.70;99.90;;;;;;4122974;28;20105;-68
2021/09/29 08:37:51;;;;;;;7.53;2.22;;;12.80;99.90;;;;;;4120237;28;20120;-68
2021/09/29 08:44:05;;;;;;;6.90;2.23;;;12.80;99.90;;;;;;4123818;28;20290;-68
2021/09/29 08:46:14;;;;;;;3.83;1.80;;;12.90;99.90;;;;;;4120169;28;20050;-68
2021/09/29 08:48:32;;;;;;;5.83;2.30;;;12.90;99.90;;;;;;4123882;28;20054;-69
2021/09/29 08:53:46;;;;;;;4.60;1.73;;;13.00;99.90;;;;;;4123948;28;20089;-68
2021/09/29 09:15:58;;;;;;;2.87;2.07;;;13.10;99.90;;;;;;4106243;28;20089;-69
2021/09/29 09:18:05;;;;;;;4.03;1.80;;;13.10;99.90;;;;;;4119313;28;20130;-69
2021/09/29 09:20:17;;;;;;;4.70;1.90;;;13.10;99.90;;;;;;4121179;28;20035;-69
2021/09/29 09:22:18;;;;;;;3.50;2.10;;;13.10;99.90;;;;;;4122168;28;20053;-69
2021/09/29 09:24:26;;;;;;;4.03;2.10;;;13.10;99.90;;;;;;4122127;28;20109;-68
2021/09/29 09:26:28;;;;;;;4.90;2.30;;;13.10;99.90;;;;;;4123807;28;20120;-67
2021/09/29 09:28:29;;;;;;;3.83;2.13;;;13.10;99.90;;;;;;4121998;28;20030;-68
2021/09/29 09:30:33;;;;;;;3.73;2.17;;;13.10;99.90;;;;;;4122525;28;20112;-69
2021/09/29 09:32:50;;;;;;;6.03;2.03;;;13.10;99.90;;;;;;4118704;28;20042;-68
2021/09/29 09:35:04;;;;;;;5.10;2.30;;;13.00;99.90;;;;;;4123519;28;20034;-69
2021/09/29 09:37:14;;;;;;;6.80;2.43;;;13.00;99.90;;;;;;4121816;28;20054;-69
2021/09/29 09:39:22;;;;;;;3.53;1.98;;;13.00;99.90;;;;;;4123539;28;20085;-69
2021/09/29 09:41:24;;;;;;;3.13;2.03;;;13.10;99.90;;;;;;4122694;28;20205;-68
2021/09/29 09:43:27;;;;;;;4.27;2.53;;;13.10;99.90;;;;;;4123019;28;20030;-69
2021/09/29 09:45:33;;;;;;;6.40;2.20;;;13.10;99.90;;;;;;4121745;28;20034;-69
2021/09/29 09:47:45;;;;;;;5.33;2.57;;;13.00;99.90;;;;;;4125834;28;20110;-69
2021/09/29 09:49:52;;;;;;;5.70;2.50;;;13.10;99.90;;;;;;4121768;28;20042;-70
2021/09/29 09:51:56;;;;;;;4.57;2.03;;;13.00;99.90;;;;;;4126024;28;20022;-69
2021/09/29 09:53:58;;;;;;;3.17;2.00;;;13.10;99.90;;;;;;4121140;28;20406;-68
2021/09/29 09:55:59;;;;;;;6.20;2.60;;;13.10;99.90;;;;;;4107869;28;20802;-70
2021/09/29 09:58:00;;;;;;;5.97;2.60;;;13.10;99.90;;;;;;4109246;28;20031;-68
2021/09/29 10:00:05;;;;;;;2.97;2.00;;;13.10;99.90;;;;;;4108568;28;20326;-68
2021/09/29 10:02:06;;;;;;;7.00;2.23;;;13.10;99.90;;;;;;4109375;28;20430;-69
2021/09/29 10:04:13;;;;;;;6.33;2.10;;;13.10;99.90;;;;;;4113414;28;20031;-70
2021/09/29 10:06:15;;;;;;;4.23;2.17;;;13.10;99.90;;;;;;4121076;28;20487;-68
2021/09/29 10:08:17;;;;;;;6.73;2.47;;;13.10;99.90;;;;;;4108677;28;20034;-70
2021/09/29 10:26:43;;;;;;;4.15;2.33;;;13.30;99.90;;;;;;4117937;28;20097;-69
2021/09/29 10:28:46;;;;;;;2.03;1.80;;;13.30;99.90;;;;;;4123984;28;20046;-68
2021/09/29 10:33:23;;;;;;;10.13;2.37;;;13.40;99.90;;;;;;4123045;28;20458;-67
2021/09/29 10:40:19;;;;;;;6.13;2.23;;;13.40;99.90;;;;;;4122052;28;20120;-66
2021/09/29 10:42:23;;;;;;;;;;;13.50;99.90;;;;;;4124994;28;20093;-67
2021/09/29 10:44:49;;;;;;;4.47;2.47;;;13.50;99.90;;;;;;4125189;28;20314;-68
2021/09/29 10:47:12;;;;;;;5.57;2.30;;;13.60;99.90;;;;;;4123867;28;20097;-68
2021/09/29 11:31:06;;;;;;;2.60;1.90;;;13.60;99.90;;;;;;4114399;28;20552;-78
2021/09/29 11:36:01;;;;;;;5.93;2.57;;;13.60;99.90;;;;;;4124185;28;20100;-64
2021/09/29 12:08:29;;;;;;;4.70;2.30;;;13.90;99.90;;;;;;4120528;28;20609;-65
2021/09/29 12:10:31;;;;;;;3.30;2.37;;;13.90;99.90;;;;;;4123638;28;20113;-69
2021/09/29 12:12:36;;;;;;;3.23;2.20;;;14.00;99.90;;;;;;4122547;28;20034;-65
2021/09/29 12:14:37;;;;;;;3.13;2.10;;;14.00;99.90;;;;;;4123345;28;20030;-67
2021/09/29 12:16:38;;;;;;;4.53;2.50;;;14.00;99.90;;;;;;4122274;28;20147;-65
2021/09/29 12:18:40;;;;;;;6.63;2.50;;;14.00;99.90;;;;;;4122978;28;20478;-67
2021/09/29 12:20:52;;;;;;;3.00;2.07;;;14.00;99.90;;;;;;4122789;28;20434;-65
2021/09/29 12:23:00;;;;;;;5.77;2.60;;;14.10;99.90;;;;;;4120305;28;20046;-69
2021/09/29 12:25:10;;;;;;;2.43;2.23;;;14.20;99.90;;;;;;4122234;28;20443;-64
2021/09/29 12:29:53;;;;;;;7.00;2.47;;;14.30;99.90;;;;;;4122398;28;20050;-65
2021/09/29 12:32:05;;;;;;;8.77;2.80;;;14.20;99.90;;;;;;4123600;28;20387;-66
2021/09/29 12:34:28;;;;;;;5.53;2.30;;;14.30;99.90;;;;;;4121750;28;20042;-66
2021/09/29 12:36:38;;;;;;;6.80;2.47;;;14.30;99.90;;;;;;4123246;28;20042;-69
2021/09/29 12:38:42;;;;;;;6.10;2.40;;;14.30;99.90;;;;;;4122235;28;20054;-65
2021/09/29 12:40:45;;;;;;;5.13;2.40;;;14.20;99.90;;;;;;4122851;28;20383;-64
2021/09/29 12:42:57;;;;;;;6.10;2.27;;;14.20;99.90;;;;;;4121676;28;20057;-65
2021/09/29 12:44:58;;;;;;;8.65;2.50;;;14.20;99.90;;;;;;4123131;28;20100;-66
2021/09/29 12:47:08;;;;;;;4.43;2.20;;;14.20;99.90;;;;;;4122029;28;20031;-64
2021/09/29 12:49:13;;;;;;;2.60;1.98;;;14.20;99.90;;;;;;4122607;28;20042;-65
2021/09/29 12:51:14;;;;;;;6.40;2.37;;;14.20;99.90;;;;;;4122231;28;20089;-65
2021/09/29 12:55:22;;;;;;;3.73;2.33;;;14.20;99.90;;;;;;4122322;28;20073;-65
2021/09/29 12:57:24;;;;;;;4.63;2.00;;;14.30;99.90;;;;;;4122222;28;20077;-65
2021/09/29 12:59:25;;;;;;;4.28;2.03;;;14.30;99.90;;;;;;4123100;28;20038;-65
2021/09/29 13:01:26;;;;;;;5.23;2.00;;;14.30;99.90;;;;;;4120593;28;20042;-63
2021/09/29 13:03:28;;;;;;;5.90;2.25;;;14.30;99.90;;;;;;4121237;28;20070;-66